Terminal Aerodrome Forecast
Issued by NWS

Home | Current Version | Previous Version | Graphics & Text | Print | Product List | Glossary On
Versions: 1 2 3 4 5 6 7 8 9 10 11 12 13 14 15 16 17 18 19 20 21 22
000
FTUS43 KLSX 242000 AAA
TAFSUS
TAF AMD
KSUS 242034Z 2421/2518 28008KT 4SM -RA BR OVC015
      TEMPO 2421/2424 P6SM -RA SCT015 OVC025
     FM250000 26007KT P6SM OVC015
     FM250600 24004KT P6SM OVC022
     FM251300 19008KT P6SM SCT250=

USA.gov is the U.S. government's official web portal to all federal, state and local government web resources and services.